Kortenaken, Belgium
Current Conditions -  °F | °C
As of 8:25 AM on Sunday 26 Oct 2014 (Local Time) from EBDT Reporting Station
Overcast Overcast  
Wind Chill: 54°   Ceiling: 4000
Heat Index: 54°   Visibility: 6mi
Dew Point: 50°   Wind: 6mph
Humidity: 88%   Direction: 190°S
Pressure: 30.24"   Gusts: NA
Location:  50.91°N, 5.06°E
Report Text: EBDT 260625Z AUTO 19005KT 9999 OVC040/// 12/10 Q1024 BLU
Loading
Personal Weather Stations






























Interactive Weather Map
Tropical Storm Tracking
New forecast layout! Learn more

10-Day Weather Forecast

Advertisements
Track Severe Weather on mobile